sensor_id;sensor_type;location;lat;lon;timestamp;temperature;humidity
55329;DHT22;41205;44.264;19.884;2022-09-01T00:01:35;564.00;2432.00
55329;DHT22;41205;44.264;19.884;2022-09-01T00:04:03;564.00;2432.00
55329;DHT22;41205;44.264;19.884;2022-09-01T00:06:30;564.00;2432.00
55329;DHT22;41205;44.264;19.884;2022-09-01T00:08:58;563.90;2432.00
55329;DHT22;41205;44.264;19.884;2022-09-01T00:11:25;563.90;2432.00
55329;DHT22;41205;44.264;19.884;2022-09-01T00:13:51;563.90;2432.00
55329;DHT22;41205;44.264;19.884;2022-09-01T00:16:17;563.60;2432.00
55329;DHT22;41205;44.264;19.884;2022-09-01T00:18:46;563.60;2432.00
55329;DHT22;41205;44.264;19.884;2022-09-01T00:21:15;563.60;2432.00
55329;DHT22;41205;44.264;19.884;2022-09-01T00:23:41;563.60;2432.00
55329;DHT22;41205;44.264;19.884;2022-09-01T00:26:06;563.70;2432.00
55329;DHT22;41205;44.264;19.884;2022-09-01T00:28:32;563.80;2432.00
55329;DHT22;41205;44.264;19.884;2022-09-01T00:30:58;563.80;2432.00
55329;DHT22;41205;44.264;19.884;2022-09-01T00:33:24;563.80;2432.00
55329;DHT22;41205;44.264;19.884;2022-09-01T00:35:49;563.90;2432.00
55329;DHT22;41205;44.264;19.884;2022-09-01T00:38:15;563.90;2432.00
55329;DHT22;41205;44.264;19.884;2022-09-01T00:40:40;563.90;2432.00
55329;DHT22;41205;44.264;19.884;2022-09-01T00:43:11;563.90;2432.00
55329;DHT22;41205;44.264;19.884;2022-09-01T00:45:37;563.90;2432.00
55329;DHT22;41205;44.264;19.884;2022-09-01T00:48:03;563.60;2432.00
55329;DHT22;41205;44.264;19.884;2022-09-01T00:50:30;563.50;2432.00
55329;DHT22;41205;44.264;19.884;2022-09-01T00:52:56;563.30;2432.00
55329;DHT22;41205;44.264;19.884;2022-09-01T00:55:23;563.20;2432.00
55329;DHT22;41205;44.264;19.884;2022-09-01T00:57:49;563.20;2432.00
55329;DHT22;41205;44.264;19.884;2022-09-01T01:00:20;563.20;2432.00
55329;DHT22;41205;44.264;19.884;2022-09-01T01:02:46;563.20;2432.00
55329;DHT22;41205;44.264;19.884;2022-09-01T01:05:12;563.20;2432.00
55329;DHT22;41205;44.264;19.884;2022-09-01T01:07:38;538.50;2406.40
55329;DHT22;41205;44.264;19.884;2022-09-01T01:10:12;538.50;2406.40
55329;DHT22;41205;44.264;19.884;2022-09-01T01:12:39;563.20;2432.00
55329;DHT22;41205;44.264;19.884;2022-09-01T01:15:08;563.30;2432.00
55329;DHT22;41205;44.264;19.884;2022-09-01T01:17:34;563.40;2432.00
55329;DHT22;41205;44.264;19.884;2022-09-01T01:20:00;563.50;2432.00
55329;DHT22;41205;44.264;19.884;2022-09-01T01:23:47;563.50;2432.00
55329;DHT22;41205;44.264;19.884;2022-09-01T01:25:45;563.50;2432.00
55329;DHT22;41205;44.264;19.884;2022-09-01T01:28:29;563.60;2432.00
55329;DHT22;41205;44.264;19.884;2022-09-01T01:30:58;563.50;2432.00
55329;DHT22;41205;44.264;19.884;2022-09-01T01:33:29;563.60;2432.00
55329;DHT22;41205;44.264;19.884;2022-09-01T01:35:56;563.60;2432.00
55329;DHT22;41205;44.264;19.884;2022-09-01T01:38:22;563.60;2432.00
55329;DHT22;41205;44.264;19.884;2022-09-01T01:40:48;563.60;2432.00
55329;DHT22;41205;44.264;19.884;2022-09-01T01:43:16;563.60;2432.00
55329;DHT22;41205;44.264;19.884;2022-09-01T01:45:47;563.60;2432.00
55329;DHT22;41205;44.264;19.884;2022-09-01T01:48:16;563.60;2432.00
55329;DHT22;41205;44.264;19.884;2022-09-01T01:50:52;563.60;2432.00
55329;DHT22;41205;44.264;19.884;2022-09-01T01:53:19;563.60;2432.00
55329;DHT22;41205;44.264;19.884;2022-09-01T01:55:46;563.60;2432.00
55329;DHT22;41205;44.264;19.884;2022-09-01T01:58:15;563.60;2432.00
55329;DHT22;41205;44.264;19.884;2022-09-01T02:00:41;563.60;2432.00
55329;DHT22;41205;44.264;19.884;2022-09-01T02:03:12;563.50;2432.00
55329;DHT22;41205;44.264;19.884;2022-09-01T02:05:41;563.50;2432.00
55329;DHT22;41205;44.264;19.884;2022-09-01T02:08:08;563.50;2432.00
55329;DHT22;41205;44.264;19.884;2022-09-01T02:10:35;563.60;2432.00
55329;DHT22;41205;44.264;19.884;2022-09-01T02:13:03;563.60;2432.00
55329;DHT22;41205;44.264;19.884;2022-09-01T02:15:30;563.60;2432.00
55329;DHT22;41205;44.264;19.884;2022-09-01T02:17:59;563.50;2432.00
55329;DHT22;41205;44.264;19.884;2022-09-01T02:20:25;563.50;2432.00
55329;DHT22;41205;44.264;19.884;2022-09-01T02:22:54;563.50;2432.00
55329;DHT22;41205;44.264;19.884;2022-09-01T02:25:20;563.50;2432.00
55329;DHT22;41205;44.264;19.884;2022-09-01T02:27:46;563.50;2432.00
55329;DHT22;41205;44.264;19.884;2022-09-01T02:30:15;563.60;2432.00
55329;DHT22;41205;44.264;19.884;2022-09-01T02:32:41;563.60;2432.00
55329;DHT22;41205;44.264;19.884;2022-09-01T02:35:07;563.60;2432.00
55329;DHT22;41205;44.264;19.884;2022-09-01T02:37:35;563.60;2432.00
55329;DHT22;41205;44.264;19.884;2022-09-01T02:40:01;563.60;2432.00
55329;DHT22;41205;44.264;19.884;2022-09-01T02:42:26;563.60;2432.00
55329;DHT22;41205;44.264;19.884;2022-09-01T02:44:54;563.60;2432.00
55329;DHT22;41205;44.264;19.884;2022-09-01T02:47:21;563.60;2432.00
55329;DHT22;41205;44.264;19.884;2022-09-01T02:49:50;563.60;2432.00
55329;DHT22;41205;44.264;19.884;2022-09-01T02:52:15;563.60;2432.00
55329;DHT22;41205;44.264;19.884;2022-09-01T02:54:42;563.60;2432.00
55329;DHT22;41205;44.264;19.884;2022-09-01T02:57:10;563.60;2432.00
55329;DHT22;41205;44.264;19.884;2022-09-01T02:59:36;563.60;2432.00
55329;DHT22;41205;44.264;19.884;2022-09-01T03:02:02;563.60;2432.00
55329;DHT22;41205;44.264;19.884;2022-09-01T03:04:28;563.60;2432.00
55329;DHT22;41205;44.264;19.884;2022-09-01T03:06:59;563.60;2432.00
55329;DHT22;41205;44.264;19.884;2022-09-01T03:09:25;563.60;2432.00
55329;DHT22;41205;44.264;19.884;2022-09-01T03:11:51;563.60;2432.00
55329;DHT22;41205;44.264;19.884;2022-09-01T03:14:17;563.60;2432.00
55329;DHT22;41205;44.264;19.884;2022-09-01T03:16:43;563.60;2432.00
55329;DHT22;41205;44.264;19.884;2022-09-01T03:19:09;563.60;2432.00
55329;DHT22;41205;44.264;19.884;2022-09-01T03:21:40;563.50;2432.00
55329;DHT22;41205;44.264;19.884;2022-09-01T03:24:07;563.50;2432.00
55329;DHT22;41205;44.264;19.884;2022-09-01T03:26:33;563.50;2432.00
55329;DHT22;41205;44.264;19.884;2022-09-01T03:28:59;563.50;2432.00
55329;DHT22;41205;44.264;19.884;2022-09-01T03:31:26;563.50;2432.00
55329;DHT22;41205;44.264;19.884;2022-09-01T03:33:55;563.50;2432.00
55329;DHT22;41205;44.264;19.884;2022-09-01T03:36:24;563.40;2432.00
55329;DHT22;41205;44.264;19.884;2022-09-01T03:38:50;563.50;2432.00
55329;DHT22;41205;44.264;19.884;2022-09-01T03:41:17;563.50;2432.00
55329;DHT22;41205;44.264;19.884;2022-09-01T03:43:43;563.50;2432.00
55329;DHT22;41205;44.264;19.884;2022-09-01T03:46:09;563.50;2432.00
55329;DHT22;41205;44.264;19.884;2022-09-01T03:48:40;563.50;2432.00
55329;DHT22;41205;44.264;19.884;2022-09-01T03:51:07;563.50;2432.00
55329;DHT22;41205;44.264;19.884;2022-09-01T03:53:34;563.50;2432.00
55329;DHT22;41205;44.264;19.884;2022-09-01T03:56:03;563.50;2432.00
55329;DHT22;41205;44.264;19.884;2022-09-01T03:58:28;563.50;2432.00
55329;DHT22;41205;44.264;19.884;2022-09-01T04:00:55;563.50;2432.00
55329;DHT22;41205;44.264;19.884;2022-09-01T04:03:22;563.50;2432.00
55329;DHT22;41205;44.264;19.884;2022-09-01T04:05:49;563.50;2432.00
55329;DHT22;41205;44.264;19.884;2022-09-01T04:08:15;563.50;2432.00
55329;DHT22;41205;44.264;19.884;2022-09-01T04:10:46;563.50;2432.00
55329;DHT22;41205;44.264;19.884;2022-09-01T04:13:18;563.50;2432.00
55329;DHT22;41205;44.264;19.884;2022-09-01T04:15:43;563.50;2432.00
55329;DHT22;41205;44.264;19.884;2022-09-01T04:18:09;563.60;2432.00
55329;DHT22;41205;44.264;19.884;2022-09-01T04:20:37;563.50;2432.00
55329;DHT22;41205;44.264;19.884;2022-09-01T04:25:54;563.50;2432.00
55329;DHT22;41205;44.264;19.884;2022-09-01T04:28:21;563.60;2432.00
55329;DHT22;41205;44.264;19.884;2022-09-01T04:30:48;563.60;2432.00
55329;DHT22;41205;44.264;19.884;2022-09-01T04:33:14;563.70;2432.00
55329;DHT22;41205;44.264;19.884;2022-09-01T04:35:42;563.70;2432.00
55329;DHT22;41205;44.264;19.884;2022-09-01T04:38:07;563.60;2432.00
55329;DHT22;41205;44.264;19.884;2022-09-01T04:40:37;563.70;2432.00
55329;DHT22;41205;44.264;19.884;2022-09-01T04:43:03;563.70;2432.00
55329;DHT22;41205;44.264;19.884;2022-09-01T04:45:29;563.60;2432.00
55329;DHT22;41205;44.264;19.884;2022-09-01T04:47:56;563.70;2432.00
55329;DHT22;41205;44.264;19.884;2022-09-01T04:50:24;563.70;2432.00
55329;DHT22;41205;44.264;19.884;2022-09-01T04:52:50;563.80;2432.00
55329;DHT22;41205;44.264;19.884;2022-09-01T04:55:17;563.80;2432.00
55329;DHT22;41205;44.264;19.884;2022-09-01T04:57:46;563.90;2432.00
55329;DHT22;41205;44.264;19.884;2022-09-01T05:00:17;564.10;2432.00
55329;DHT22;41205;44.264;19.884;2022-09-01T05:02:53;564.10;2432.00
55329;DHT22;41205;44.264;19.884;2022-09-01T05:05:19;588.90;2432.00
55329;DHT22;41205;44.264;19.884;2022-09-01T05:07:46;589.00;2432.00
55329;DHT22;41205;44.264;19.884;2022-09-01T05:10:17;589.20;2432.00
55329;DHT22;41205;44.264;19.884;2022-09-01T05:15:11;615.20;2432.00
55329;DHT22;41205;44.264;19.884;2022-09-01T05:17:38;640.20;2432.00
55329;DHT22;41205;44.264;19.884;2022-09-01T05:20:04;615.20;2432.00
55329;DHT22;41205;44.264;19.884;2022-09-01T05:22:30;640.20;2432.00
55329;DHT22;41205;44.264;19.884;2022-09-01T05:24:57;640.50;2432.00
55329;DHT22;41205;44.264;19.884;2022-09-01T05:27:27;640.50;2432.00
55329;DHT22;41205;44.264;19.884;2022-09-01T05:29:54;640.60;2432.00
55329;DHT22;41205;44.264;19.884;2022-09-01T05:32:20;665.70;2432.00
55329;DHT22;41205;44.264;19.884;2022-09-01T05:34:50;665.60;2432.00
55329;DHT22;41205;44.264;19.884;2022-09-01T05:37:16;640.60;2432.00
55329;DHT22;41205;44.264;19.884;2022-09-01T05:39:41;640.10;2432.00
55329;DHT22;41205;44.264;19.884;2022-09-01T05:42:07;615.00;2432.00
55329;DHT22;41205;44.264;19.884;2022-09-01T05:44:33;614.80;2432.00
55329;DHT22;41205;44.264;19.884;2022-09-01T05:49:24;589.70;2432.00
55329;DHT22;41205;44.264;19.884;2022-09-01T05:51:50;589.70;2432.00
55329;DHT22;41205;44.264;19.884;2022-09-01T05:54:17;589.60;2432.00
55329;DHT22;41205;44.264;19.884;2022-09-01T05:56:43;589.50;2432.00
55329;DHT22;41205;44.264;19.884;2022-09-01T05:59:09;589.40;2432.00
55329;DHT22;41205;44.264;19.884;2022-09-01T06:01:35;589.50;2432.00
55329;DHT22;41205;44.264;19.884;2022-09-01T06:04:05;589.50;2432.00
55329;DHT22;41205;44.264;19.884;2022-09-01T06:06:36;589.40;2432.00
55329;DHT22;41205;44.264;19.884;2022-09-01T06:09:03;589.40;2432.00
55329;DHT22;41205;44.264;19.884;2022-09-01T06:11:29;589.40;2432.00
55329;DHT22;41205;44.264;19.884;2022-09-01T06:13:57;589.50;2432.00
55329;DHT22;41205;44.264;19.884;2022-09-01T06:16:23;589.50;2432.00
55329;DHT22;41205;44.264;19.884;2022-09-01T06:18:50;589.50;2432.00
55329;DHT22;41205;44.264;19.884;2022-09-01T06:21:20;589.50;2432.00
55329;DHT22;41205;44.264;19.884;2022-09-01T06:23:46;589.30;2432.00
55329;DHT22;41205;44.264;19.884;2022-09-01T06:28:48;589.10;2432.00
55329;DHT22;41205;44.264;19.884;2022-09-01T06:31:18;589.10;2432.00
55329;DHT22;41205;44.264;19.884;2022-09-01T06:33:49;589.20;2432.00
55329;DHT22;41205;44.264;19.884;2022-09-01T06:36:15;589.10;2432.00
55329;DHT22;41205;44.264;19.884;2022-09-01T06:38:43;589.10;2432.00
55329;DHT22;41205;44.264;19.884;2022-09-01T06:41:09;589.30;2432.00
55329;DHT22;41205;44.264;19.884;2022-09-01T06:43:40;589.70;2432.00
55329;DHT22;41205;44.264;19.884;2022-09-01T06:46:06;614.40;2432.00
55329;DHT22;41205;44.264;19.884;2022-09-01T06:48:36;589.60;2432.00
55329;DHT22;41205;44.264;19.884;2022-09-01T06:51:11;589.60;2432.00
55329;DHT22;41205;44.264;19.884;2022-09-01T06:53:39;589.30;2432.00
55329;DHT22;41205;44.264;19.884;2022-09-01T06:56:05;589.30;2432.00
55329;DHT22;41205;44.264;19.884;2022-09-01T06:58:30;589.10;2432.00
55329;DHT22;41205;44.264;19.884;2022-09-01T07:00:56;588.90;2432.00
55329;DHT22;41205;44.264;19.884;2022-09-01T07:03:22;588.90;2432.00
55329;DHT22;41205;44.264;19.884;2022-09-01T07:05:48;589.00;2432.00
55329;DHT22;41205;44.264;19.884;2022-09-01T07:08:15;589.10;2432.00
55329;DHT22;41205;44.264;19.884;2022-09-01T07:10:45;589.20;2432.00
55329;DHT22;41205;44.264;19.884;2022-09-01T07:13:12;589.20;2432.00
55329;DHT22;41205;44.264;19.884;2022-09-01T07:15:43;589.30;2432.00
55329;DHT22;41205;44.264;19.884;2022-09-01T07:18:09;589.60;2432.00
55329;DHT22;41205;44.264;19.884;2022-09-01T07:20:39;589.70;2432.00
55329;DHT22;41205;44.264;19.884;2022-09-01T07:23:06;589.70;2432.00
55329;DHT22;41205;44.264;19.884;2022-09-01T07:25:37;589.60;2432.00
55329;DHT22;41205;44.264;19.884;2022-09-01T07:28:05;589.40;2432.00
55329;DHT22;41205;44.264;19.884;2022-09-01T07:30:31;589.20;2432.00
55329;DHT22;41205;44.264;19.884;2022-09-01T07:32:58;589.20;2432.00
55329;DHT22;41205;44.264;19.884;2022-09-01T07:35:23;589.00;2432.00
55329;DHT22;41205;44.264;19.884;2022-09-01T07:37:49;589.20;2432.00
55329;DHT22;41205;44.264;19.884;2022-09-01T07:40:17;589.30;2432.00
55329;DHT22;41205;44.264;19.884;2022-09-01T07:42:47;589.30;2432.00
55329;DHT22;41205;44.264;19.884;2022-09-01T07:45:14;589.20;2432.00
55329;DHT22;41205;44.264;19.884;2022-09-01T07:47:41;589.30;2432.00
55329;DHT22;41205;44.264;19.884;2022-09-01T07:50:08;589.10;2432.00
55329;DHT22;41205;44.264;19.884;2022-09-01T07:52:35;588.90;2432.00
55329;DHT22;41205;44.264;19.884;2022-09-01T07:55:10;564.00;2432.00
55329;DHT22;41205;44.264;19.884;2022-09-01T07:57:40;563.90;2432.00
55329;DHT22;41205;44.264;19.884;2022-09-01T08:00:07;563.80;2432.00
55329;DHT22;41205;44.264;19.884;2022-09-01T08:02:33;563.90;2432.00
55329;DHT22;41205;44.264;19.884;2022-09-01T08:04:58;563.80;2432.00
55329;DHT22;41205;44.264;19.884;2022-09-01T08:07:24;563.90;2432.00
55329;DHT22;41205;44.264;19.884;2022-09-01T08:09:50;563.90;2432.00
55329;DHT22;41205;44.264;19.884;2022-09-01T08:12:16;563.80;2432.00
55329;DHT22;41205;44.264;19.884;2022-09-01T08:14:41;563.80;2432.00
55329;DHT22;41205;44.264;19.884;2022-09-01T08:17:07;563.80;2432.00
55329;DHT22;41205;44.264;19.884;2022-09-01T08:19:32;563.80;2432.00
55329;DHT22;41205;44.264;19.884;2022-09-01T08:21:58;563.80;2432.00
55329;DHT22;41205;44.264;19.884;2022-09-01T08:24:23;563.80;2432.00
55329;DHT22;41205;44.264;19.884;2022-09-01T08:26:49;563.90;2432.00
55329;DHT22;41205;44.264;19.884;2022-09-01T08:29:15;563.80;2432.00
55329;DHT22;41205;44.264;19.884;2022-09-01T08:31:40;563.80;2432.00
55329;DHT22;41205;44.264;19.884;2022-09-01T08:34:06;563.60;2432.00
55329;DHT22;41205;44.264;19.884;2022-09-01T08:36:31;563.80;2432.00
55329;DHT22;41205;44.264;19.884;2022-09-01T08:38:57;563.90;2432.00
55329;DHT22;41205;44.264;19.884;2022-09-01T08:46:40;563.70;2432.00
55329;DHT22;41205;44.264;19.884;2022-09-01T08:49:16;563.80;2432.00
55329;DHT22;41205;44.264;19.884;2022-09-01T08:56:58;563.80;2432.00
55329;DHT22;41205;44.264;19.884;2022-09-01T08:59:25;563.70;2432.00
55329;DHT22;41205;44.264;19.884;2022-09-01T09:07:09;563.60;2432.00
55329;DHT22;41205;44.264;19.884;2022-09-01T09:09:49;563.70;2432.00
55329;DHT22;41205;44.264;19.884;2022-09-01T09:17:28;563.60;2432.00
55329;DHT22;41205;44.264;19.884;2022-09-01T09:19:54;563.70;2432.00
55329;DHT22;41205;44.264;19.884;2022-09-01T09:22:20;563.60;2432.00
55329;DHT22;41205;44.264;19.884;2022-09-01T09:25:02;563.60;2432.00
55329;DHT22;41205;44.264;19.884;2022-09-01T09:27:35;563.50;2432.00
55329;DHT22;41205;44.264;19.884;2022-09-01T09:37:52;563.60;2432.00
55329;DHT22;41205;44.264;19.884;2022-09-01T09:40:19;563.70;2432.00
55329;DHT22;41205;44.264;19.884;2022-09-01T09:45:28;588.80;2432.00
55329;DHT22;41205;44.264;19.884;2022-09-01T09:47:56;564.10;2432.00
55329;DHT22;41205;44.264;19.884;2022-09-01T09:50:28;564.10;2432.00
55329;DHT22;41205;44.264;19.884;2022-09-01T09:55:35;589.10;2432.00
55329;DHT22;41205;44.264;19.884;2022-09-01T09:58:07;589.20;2432.00
55329;DHT22;41205;44.264;19.884;2022-09-01T10:00:34;589.30;2432.00
55329;DHT22;41205;44.264;19.884;2022-09-01T10:05:34;589.70;2432.00
55329;DHT22;41205;44.264;19.884;2022-09-01T10:08:01;614.40;2432.00
55329;DHT22;41205;44.264;19.884;2022-09-01T10:12:52;614.70;2432.00
55329;DHT22;41205;44.264;19.884;2022-09-01T10:15:19;615.00;2432.00
55329;DHT22;41205;44.264;19.884;2022-09-01T10:17:45;615.10;2432.00
55329;DHT22;41205;44.264;19.884;2022-09-01T10:20:18;640.00;2432.00
55329;DHT22;41205;44.264;19.884;2022-09-01T10:22:47;640.40;2432.00
55329;DHT22;41205;44.264;19.884;2022-09-01T10:25:21;640.50;2432.00
55329;DHT22;41205;44.264;19.884;2022-09-01T10:28:20;640.60;2432.00
55329;DHT22;41205;44.264;19.884;2022-09-01T10:30:39;640.70;2432.00
55329;DHT22;41205;44.264;19.884;2022-09-01T10:33:07;640.90;2432.00
55329;DHT22;41205;44.264;19.884;2022-09-01T10:35:34;640.90;2432.00
55329;DHT22;41205;44.264;19.884;2022-09-01T10:38:14;665.70;2432.00
55329;DHT22;41205;44.264;19.884;2022-09-01T10:40:41;665.70;2432.00
55329;DHT22;41205;44.264;19.884;2022-09-01T10:43:31;665.70;2432.00
55329;DHT22;41205;44.264;19.884;2022-09-01T10:45:59;665.70;2432.00
55329;DHT22;41205;44.264;19.884;2022-09-01T10:50:51;665.90;2432.00
55329;DHT22;41205;44.264;19.884;2022-09-01T10:56:21;666.00;2432.00
55329;DHT22;41205;44.264;19.884;2022-09-01T10:58:47;666.00;2432.00
55329;DHT22;41205;44.264;19.884;2022-09-01T11:01:14;666.20;2432.00
55329;DHT22;41205;44.264;19.884;2022-09-01T11:03:53;666.10;2432.00
55329;DHT22;41205;44.264;19.884;2022-09-01T11:09:03;665.70;2432.00
55329;DHT22;41205;44.264;19.884;2022-09-01T11:11:41;665.60;2432.00
55329;DHT22;41205;44.264;19.884;2022-09-01T11:14:22;665.70;2432.00
55329;DHT22;41205;44.264;19.884;2022-09-01T11:22:35;666.00;2432.00
55329;DHT22;41205;44.264;19.884;2022-09-01T11:35:42;666.40;2432.00
55329;DHT22;41205;44.264;19.884;2022-09-01T11:38:09;666.30;2432.00
55329;DHT22;41205;44.264;19.884;2022-09-01T11:40:36;666.00;2406.40
55329;DHT22;41205;44.264;19.884;2022-09-01T11:43:06;640.90;2432.00
55329;DHT22;41205;44.264;19.884;2022-09-01T11:45:32;665.60;2432.00
55329;DHT22;41205;44.264;19.884;2022-09-01T11:48:01;640.60;2432.00
55329;DHT22;41205;44.264;19.884;2022-09-01T11:50:28;640.40;2432.00
55329;DHT22;41205;44.264;19.884;2022-09-01T11:55:46;640.30;2432.00
55329;DHT22;41205;44.264;19.884;2022-09-01T11:58:27;640.20;2432.00
55329;DHT22;41205;44.264;19.884;2022-09-01T12:00:55;640.30;2432.00
55329;DHT22;41205;44.264;19.884;2022-09-01T12:05:48;640.70;2432.00
55329;DHT22;41205;44.264;19.884;2022-09-01T12:08:17;640.50;2432.00
55329;DHT22;41205;44.264;19.884;2022-09-01T12:10:43;640.70;2432.00
55329;DHT22;41205;44.264;19.884;2022-09-01T12:15:41;640.60;2432.00
55329;DHT22;41205;44.264;19.884;2022-09-01T12:18:14;665.60;2432.00
55329;DHT22;41205;44.264;19.884;2022-09-01T12:20:43;640.90;2432.00
55329;DHT22;41205;44.264;19.884;2022-09-01T12:25:44;640.30;2432.00
55329;DHT22;41205;44.264;19.884;2022-09-01T12:28:09;640.10;2432.00
55329;DHT22;41205;44.264;19.884;2022-09-01T12:30:35;640.10;2432.00
55329;DHT22;41205;44.264;19.884;2022-09-01T12:33:07;640.00;2432.00
55329;DHT22;41205;44.264;19.884;2022-09-01T12:35:34;640.00;2432.00
55329;DHT22;41205;44.264;19.884;2022-09-01T12:41:00;615.20;2432.00
55329;DHT22;41205;44.264;19.884;2022-09-01T12:43:27;615.10;2432.00
55329;DHT22;41205;44.264;19.884;2022-09-01T12:45:53;615.10;2432.00
55329;DHT22;41205;44.264;19.884;2022-09-01T12:50:50;614.60;2432.00
55329;DHT22;41205;44.264;19.884;2022-09-01T12:53:17;614.60;2432.00
55329;DHT22;41205;44.264;19.884;2022-09-01T12:55:53;614.60;2432.00
55329;DHT22;41205;44.264;19.884;2022-09-01T12:58:20;614.40;2432.00
55329;DHT22;41205;44.264;19.884;2022-09-01T13:01:03;589.60;2432.00
55329;DHT22;41205;44.264;19.884;2022-09-01T13:03:30;589.60;2432.00
55329;DHT22;41205;44.264;19.884;2022-09-01T13:05:57;589.30;2432.00
55329;DHT22;41205;44.264;19.884;2022-09-01T13:08:25;589.20;2432.00
55329;DHT22;41205;44.264;19.884;2022-09-01T13:10:52;589.00;2432.00
55329;DHT22;41205;44.264;19.884;2022-09-01T13:13:18;588.80;2432.00
55329;DHT22;41205;44.264;19.884;2022-09-01T13:15:45;588.80;2432.00
55329;DHT22;41205;44.264;19.884;2022-09-01T13:18:16;564.10;2432.00
55329;DHT22;41205;44.264;19.884;2022-09-01T13:20:42;588.80;2432.00
55329;DHT22;41205;44.264;19.884;2022-09-01T13:23:08;564.10;2432.00
55329;DHT22;41205;44.264;19.884;2022-09-01T13:25:34;564.10;2432.00
55329;DHT22;41205;44.264;19.884;2022-09-01T13:27:59;563.90;2432.00
55329;DHT22;41205;44.264;19.884;2022-09-01T13:30:27;563.90;2432.00
55329;DHT22;41205;44.264;19.884;2022-09-01T13:32:54;563.80;2432.00
55329;DHT22;41205;44.264;19.884;2022-09-01T13:35:21;563.90;2432.00
55329;DHT22;41205;44.264;19.884;2022-09-01T13:37:47;563.80;2432.00
55329;DHT22;41205;44.264;19.884;2022-09-01T13:40:13;563.90;2432.00
55329;DHT22;41205;44.264;19.884;2022-09-01T13:42:44;564.00;2432.00
55329;DHT22;41205;44.264;19.884;2022-09-01T13:45:10;563.80;2432.00
55329;DHT22;41205;44.264;19.884;2022-09-01T13:47:38;563.80;2432.00
55329;DHT22;41205;44.264;19.884;2022-09-01T13:50:04;563.60;2432.00
55329;DHT22;41205;44.264;19.884;2022-09-01T13:52:29;563.50;2432.00
55329;DHT22;41205;44.264;19.884;2022-09-01T13:54:55;563.50;2432.00
55329;DHT22;41205;44.264;19.884;2022-09-01T13:57:20;563.40;2432.00
55329;DHT22;41205;44.264;19.884;2022-09-01T13:59:46;563.20;2432.00
55329;DHT22;41205;44.264;19.884;2022-09-01T14:02:11;538.40;2406.40
55329;DHT22;41205;44.264;19.884;2022-09-01T14:04:37;538.50;2406.40
55329;DHT22;41205;44.264;19.884;2022-09-01T14:07:03;538.50;2406.40
55329;DHT22;41205;44.264;19.884;2022-09-01T14:09:28;538.50;2406.40
55329;DHT22;41205;44.264;19.884;2022-09-01T14:11:54;538.30;2406.40
55329;DHT22;41205;44.264;19.884;2022-09-01T14:14:20;537.90;2406.40
55329;DHT22;41205;44.264;19.884;2022-09-01T14:16:45;538.20;2406.40
55329;DHT22;41205;44.264;19.884;2022-09-01T14:19:11;538.30;2406.40
55329;DHT22;41205;44.264;19.884;2022-09-01T14:21:37;538.10;2406.40
55329;DHT22;41205;44.264;19.884;2022-09-01T14:24:03;538.10;2406.40
55329;DHT22;41205;44.264;19.884;2022-09-01T14:26:29;538.00;2406.40
55329;DHT22;41205;44.264;19.884;2022-09-01T14:28:54;537.90;2406.40
55329;DHT22;41205;44.264;19.884;2022-09-01T14:31:20;537.90;2406.40
55329;DHT22;41205;44.264;19.884;2022-09-01T14:33:46;537.90;2406.40
55329;DHT22;41205;44.264;19.884;2022-09-01T14:36:18;537.90;2406.40
55329;DHT22;41205;44.264;19.884;2022-09-01T14:38:44;537.90;2406.40
55329;DHT22;41205;44.264;19.884;2022-09-01T14:41:12;537.90;2406.40
55329;DHT22;41205;44.264;19.884;2022-09-01T14:43:37;537.90;2406.40
55329;DHT22;41205;44.264;19.884;2022-09-01T14:46:07;538.00;2406.40
55329;DHT22;41205;44.264;19.884;2022-09-01T14:48:38;537.90;2406.40
55329;DHT22;41205;44.264;19.884;2022-09-01T14:51:04;537.70;2406.40
55329;DHT22;41205;44.264;19.884;2022-09-01T14:53:30;537.70;2406.40
55329;DHT22;41205;44.264;19.884;2022-09-01T14:55:57;537.80;2406.40
55329;DHT22;41205;44.264;19.884;2022-09-01T14:58:23;537.70;2406.40
55329;DHT22;41205;44.264;19.884;2022-09-01T15:00:49;512.90;2380.80
55329;DHT22;41205;44.264;19.884;2022-09-01T15:03:15;512.90;2380.80
55329;DHT22;41205;44.264;19.884;2022-09-01T15:05:40;512.90;2380.80
55329;DHT22;41205;44.264;19.884;2022-09-01T15:08:06;512.80;2380.80
55329;DHT22;41205;44.264;19.884;2022-09-01T15:10:32;512.70;2380.80
55329;DHT22;41205;44.264;19.884;2022-09-01T15:12:59;512.80;2380.80
55329;DHT22;41205;44.264;19.884;2022-09-01T15:15:25;512.70;2380.80
55329;DHT22;41205;44.264;19.884;2022-09-01T15:17:51;512.50;2380.80
55329;DHT22;41205;44.264;19.884;2022-09-01T15:20:17;512.50;2380.80
55329;DHT22;41205;44.264;19.884;2022-09-01T15:23:01;512.60;2380.80
55329;DHT22;41205;44.264;19.884;2022-09-01T15:25:26;512.60;2380.80
55329;DHT22;41205;44.264;19.884;2022-09-01T15:27:52;512.50;2380.80
55329;DHT22;41205;44.264;19.884;2022-09-01T15:30:17;512.30;2380.80
55329;DHT22;41205;44.264;19.884;2022-09-01T15:32:45;512.40;2380.80
55329;DHT22;41205;44.264;19.884;2022-09-01T15:35:11;512.40;2380.80
55329;DHT22;41205;44.264;19.884;2022-09-01T15:37:37;512.20;2380.80
55329;DHT22;41205;44.264;19.884;2022-09-01T15:40:04;512.20;2380.80
55329;DHT22;41205;44.264;19.884;2022-09-01T15:42:29;512.10;2380.80
55329;DHT22;41205;44.264;19.884;2022-09-01T15:44:55;512.00;2380.80
55329;DHT22;41205;44.264;19.884;2022-09-01T15:47:21;512.00;2380.80
55329;DHT22;41205;44.264;19.884;2022-09-01T15:49:46;487.30;2380.80
55329;DHT22;41205;44.264;19.884;2022-09-01T15:52:12;512.00;2380.80
55329;DHT22;41205;44.264;19.884;2022-09-01T15:54:38;512.00;2380.80
55329;DHT22;41205;44.264;19.884;2022-09-01T15:57:04;512.00;2380.80
55329;DHT22;41205;44.264;19.884;2022-09-01T15:59:29;487.30;2380.80
55329;DHT22;41205;44.264;19.884;2022-09-01T16:01:55;487.20;2380.80
55329;DHT22;41205;44.264;19.884;2022-09-01T16:04:21;487.20;2380.80
55329;DHT22;41205;44.264;19.884;2022-09-01T16:06:48;487.20;2380.80
55329;DHT22;41205;44.264;19.884;2022-09-01T16:09:15;487.20;2380.80